Sovereign — 9HUE9 — position and weather

sailwx.info

Track history (hours):
 
Tides and Currents Weather Stations Pressure Air Temp Water Temp Dewpoint Dewpoint Depression Visibility Wind Speed Wind Dir Waves Ship Positions

Sovereign

Last reported at 2015-Apr-21 06:23 UTC. Time now 2015-Apr-21 08:13 UTC.
Position N 40°50' E 014°17'.

Length 268 m; draft 7.8 m.

Type: Passenger vessel. MMSI: 249539000.

Date/timePositionNaut miles runAvg speedWind from/ knotsBaromVisibWave heightAir tempDewpointWater temp
2015-Apr-21 06:23N 40°50' E 014°17'7 7.9
2015-Apr-21 05:33N 40°43' E 014°15'1110.6
2015-Apr-21 04:32N 40°34' E 014°07'1212.4
2015-Apr-21 03:33N 40°22' E 014°03'9513.1
2015-Apr-20 20:16N 38°49' E 013°37'1013.9
2015-Apr-20 19:34N 38°40' E 013°34'1414.0
2015-Apr-20 18:34N 38°26' E 013°31'1413.6
2015-Apr-20 17:34N 38°13' E 013°27'6 5.8
2015-Apr-20 16:31N 38°08' E 013°22'0 0.0
2015-Apr-20 15:31N 38°08' E 013°22'0 0.0
2015-Apr-20 14:33N 38°08' E 013°22'0 0.0
2015-Apr-20 13:33N 38°08' E 013°22'0 0.0
2015-Apr-20 12:33N 38°08' E 013°22'0 0.0
2015-Apr-20 11:33N 38°08' E 013°22'0 0.0
2015-Apr-20 10:33N 38°08' E 013°22'0 0.0
2015-Apr-20 09:33N 38°08' E 013°22'0 0.0
2015-Apr-20 08:33N 38°08' E 013°22'0 0.0
2015-Apr-20 07:30N 38°08' E 013°22'0 0.0
2015-Apr-20 06:33N 38°08' E 013°22'0 0.2
2015-Apr-20 05:34N 38°08' E 013°22'5 4.6
2015-Apr-20 04:33N 38°12' E 013°24'9 9.4
2015-Apr-20 03:33N 38°19' E 013°16'1212.4
2015-Apr-20 02:33N 38°20' E 012°60'1312.9
2015-Apr-20 01:31N 38°21' E 012°43'13114.3
2015-Apr-19 16:20N 38°33' E 009°56'2016.7
2015-Apr-19 15:08N 38°34' E 009°30'3117.0
2015-Apr-19 13:18N 38°37' E 008°51'1316.8
2015-Apr-19 12:33N 38°38' E 008°35'3516.4
2015-Apr-19 10:26N 38°50' E 007°53'15216.9
2015-Apr-19 01:29N 40°05' E 005°02'3416.9
2015-Apr-18 23:29N 40°22' E 004°23'2117.3
2015-Apr-18 22:15N 40°32' E 003°59'1516.4
2015-Apr-18 21:20N 40°39' E 003°42'1316.7
2015-Apr-18 20:33N 40°45' E 003°26'1716.6
2015-Apr-18 19:33N 40°53' E 003°07'1716.9
2015-Apr-18 18:33N 41°02' E 002°48'1716.8
2015-Apr-18 17:33N 41°09' E 002°28'1615.9
2015-Apr-18 16:33N 41°18' E 002°10'4 3.6
2015-Apr-18 15:33N 41°22' E 002°11'0 0.0
2015-Apr-18 14:33N 41°22' E 002°11'0 0.0
2015-Apr-18 13:33N 41°22' E 002°11'0 0.0
2015-Apr-18 12:33N 41°22' E 002°11'0 0.0
2015-Apr-18 11:33N 41°22' E 002°11'0 0.0
2015-Apr-18 10:33N 41°22' E 002°11'0 0.0
2015-Apr-18 09:33N 41°22' E 002°11'0 0.0
2015-Apr-18 08:33N 41°22' E 002°11'0 0.0
2015-Apr-18 07:33N 41°22' E 002°11'0 0.0
2015-Apr-18 06:33N 41°22' E 002°11'4 3.6
2015-Apr-18 05:26N 41°18' E 002°11'1213.5
2015-Apr-18 04:33N 41°20' E 002°26'1717.4
2015-Apr-18 03:33N 41°29' E 002°47'5517.5
2015-Apr-18 00:26N 41°54' E 003°52'3317.1
2015-Apr-17 22:32N 42°09' E 004°31'1817.2
2015-Apr-17 21:30N 42°17' E 004°52'1616.5
2015-Apr-17 20:34N 42°24' E 005°10'2117.9
2015-Apr-17 19:23N 42°34' E 005°36'1416.4
2015-Apr-17 18:33N 42°40' E 005°52'5917.3
2015-Apr-17 15:09N 43°16' E 006°56'1016.8
2015-Apr-17 14:34N 43°24' E 007°05'1515.1
2015-Apr-17 13:33N 43°36' E 007°16'6 4.8
2015-Apr-17 12:24N 43°42' E 007°19'0 0.0
2015-Apr-17 11:30N 43°42' E 007°19'0 0.0
2015-Apr-17 10:30N 43°42' E 007°19'0 0.0
2015-Apr-17 09:24N 43°42' E 007°19'0 0.0
2015-Apr-17 07:24N 43°42' E 007°19'0 0.0
2015-Apr-17 05:26N 43°42' E 007°19'0 0.0
2015-Apr-17 04:33N 43°42' E 007°19'5 5.0
2015-Apr-17 03:30N 43°40' E 007°25'1511.1
2015-Apr-17 02:10N 43°39' E 007°46'911.5
2015-Apr-17 01:22N 43°38' E 007°59'1113.3
2015-Apr-17 00:33N 43°37' E 008°13'1413.7
2015-Apr-16 23:33N 43°36' E 008°32'1413.7
2015-Apr-16 22:33N 43°35' E 008°51'1413.9
2015-Apr-16 21:34N 43°34' E 009°10'1413.7
2015-Apr-16 20:34N 43°33' E 009°29'1312.7
2015-Apr-16 19:33N 43°33' E 009°47'1110.6
2015-Apr-16 18:33N 43°31' E 010°01'1211.9
2015-Apr-16 17:33N 43°33' E 010°17'1 1.0
2015-Apr-16 16:33N 43°34' E 010°18'0 0.0
2015-Apr-16 15:33N 43°34' E 010°18'0 0.0
2015-Apr-16 14:33N 43°34' E 010°18'0 0.0
2015-Apr-16 13:33N 43°33' E 010°18'0 0.0
2015-Apr-16 12:33N 43°33' E 010°18'0 0.0
2015-Apr-16 11:33N 43°33' E 010°18'0 0.0
2015-Apr-16 10:33N 43°33' E 010°18'0 0.0
2015-Apr-16 09:30N 43°33' E 010°18'0 0.0
2015-Apr-16 08:33N 43°34' E 010°18'0 0.0
2015-Apr-16 07:30N 43°33' E 010°18'0 0.0
2015-Apr-16 06:33N 43°34' E 010°18'0 0.0
2015-Apr-16 05:33N 43°34' E 010°18'3 2.6
2015-Apr-16 04:33N 43°31' E 010°16'1211.9
2015-Apr-16 03:33N 43°20' E 010°10'1515.0
2015-Apr-16 02:33N 43°05' E 010°09'1414.2
2015-Apr-16 01:34N 42°52' E 010°00'1514.8
2015-Apr-16 00:33N 42°38' E 009°57'1614.7
2015-Apr-15 23:27N 42°22' E 009°57'1514.3
2015-Apr-15 22:23N 42°07' E 010°04'1916.4
2015-Apr-15 21:15N 42°06' E 010°29'1516.0
2015-Apr-15 20:20N 42°04' E 010°49'1416.4
2015-Apr-15 19:29N 42°02' E 011°07'76 4.0
2015-Apr-15 00:19N 41°15' E 012°27'2513.6
2015-Apr-14 22:29N 41°06' E 012°57'1414.8
2015-Apr-14 21:33N 40°60' E 013°14'1515.0
2015-Apr-14 20:33N 40°52' E 013°31'1515.4
2015-Apr-14 19:33N 40°40' E 013°44'1413.9
2015-Apr-14 18:33N 40°38' E 014°02'1413.7
2015-Apr-14 17:33N 40°48' E 014°15'3 0.2
2015-Apr-14 06:27N 40°50' E 014°16'6 6.3
2015-Apr-14 05:33N 40°45' E 014°15'1111.1
2015-Apr-14 04:33N 40°35' E 014°08'1211.8
2015-Apr-14 03:33N 40°24' E 014°03'1211.6
2015-Apr-14 02:33N 40°12' E 014°01'1211.6
2015-Apr-14 01:33N 40°01' E 013°58'1212.1
2015-Apr-14 00:34N 39°49' E 013°55'1411.8
2015-Apr-13 23:22N 39°35' E 013°51'911.3
2015-Apr-13 22:33N 39°26' E 013°47'1211.5
2015-Apr-13 21:32N 39°15' E 013°44'2311.8
2015-Apr-13 19:34N 38°52' E 013°38'1111.4
2015-Apr-13 18:33N 38°41' E 013°34'1717.1
2015-Apr-13 17:34N 38°24' E 013°30'1616.1
2015-Apr-13 16:33N 38°09' E 013°25'3 2.8
2015-Apr-13 15:32N 38°08' E 013°22'0 0.0
2015-Apr-13 14:32N 38°08' E 013°22'0 0.0
2015-Apr-13 13:32N 38°08' E 013°22'0 0.0
2015-Apr-13 12:32N 38°08' E 013°22'0 0.0
2015-Apr-13 11:32N 38°08' E 013°22'0 0.0
2015-Apr-13 10:29N 38°08' E 013°22'0 0.0
2015-Apr-13 09:32N 38°08' E 013°22'0 0.0
2015-Apr-13 08:32N 38°08' E 013°22'0 0.0
2015-Apr-13 07:32N 38°08' E 013°22'0 0.0
2015-Apr-13 06:32N 38°08' E 013°22'0 0.2
2015-Apr-13 05:33N 38°08' E 013°22'6 6.4
2015-Apr-13 04:33N 38°14' E 013°23'9 9.4
2015-Apr-13 03:33N 38°19' E 013°13'1212.1
2015-Apr-13 02:33N 38°20' E 012°58'1411.8
2015-Apr-13 01:20N 38°21' E 012°39'23015.5
2015-Apr-12 10:28N 38°56' E 007°48'3917.3
2015-Apr-12 08:12N 39°14' E 007°03'1316.6
2015-Apr-12 07:24N 39°21' E 006°48'2116.7
2015-Apr-12 06:09N 39°31' E 006°24'3016.7
2015-Apr-12 04:21N 39°45' E 005°50'1417.0
2015-Apr-12 03:30N 39°52' E 005°33'1516.4
2015-Apr-12 02:33N 39°60' E 005°16'2016.6
2015-Apr-12 01:22N 40°09' E 004°53'1416.8
2015-Apr-12 00:31N 40°16' E 004°37'1917.0
2015-Apr-11 23:24N 40°25' E 004°15'3316.7
2015-Apr-11 21:26N 40°41' E 003°37'1516.7
2015-Apr-11 20:33N 40°48' E 003°20'1716.6
2015-Apr-11 19:33N 40°56' E 003°01'1716.6
2015-Apr-11 18:33N 41°04' E 002°41'1616.4
2015-Apr-11 17:33N 41°11' E 002°22'1312.6
2015-Apr-11 16:32N 41°20' E 002°10'1 1.2
2015-Apr-11 15:26N 41°22' E 002°11'0 0.0
2015-Apr-11 14:32N 41°22' E 002°11'0 0.0
2015-Apr-11 13:33N 41°22' E 002°11'0 0.0
2015-Apr-11 11:33N 41°22' E 002°11'0 0.0
2015-Apr-11 10:29N 41°22' E 002°11'0 0.0
2015-Apr-11 09:19N 41°22' E 002°11'0 0.0
2015-Apr-11 07:07N 41°22' E 002°11'0 0.0
2015-Apr-11 06:33N 41°22' E 002°11'  
Track history (hours):
 
Tides and Currents Weather Stations Pressure Air Temp Water Temp Dewpoint Dewpoint Depression Visibility Wind Speed Wind Dir Waves Ship Positions

Sovereign

Last reported at 2015-Apr-21 06:23 UTC. Time now 2015-Apr-21 08:13 UTC.
Position N 40°50' E 014°17'.

Length 268 m; draft 7.8 m.

Type: Passenger vessel. MMSI: 249539000.

Date/timePositionNaut miles runAvg speedWind from/ knotsBaromVisibWave heightAir tempDewpointWater temp
2015-Apr-21 06:23N 40°50' E 014°17'7 7.9
2015-Apr-21 05:33N 40°43' E 014°15'1110.6
2015-Apr-21 04:32N 40°34' E 014°07'1212.4
2015-Apr-21 03:33N 40°22' E 014°03'9513.1
2015-Apr-20 20:16N 38°49' E 013°37'1013.9
2015-Apr-20 19:34N 38°40' E 013°34'1414.0
2015-Apr-20 18:34N 38°26' E 013°31'1413.6
2015-Apr-20 17:34N 38°13' E 013°27'6 5.8
2015-Apr-20 16:31N 38°08' E 013°22'0 0.0
2015-Apr-20 15:31N 38°08' E 013°22'0 0.0
2015-Apr-20 14:33N 38°08' E 013°22'0 0.0
2015-Apr-20 13:33N 38°08' E 013°22'0 0.0
2015-Apr-20 12:33N 38°08' E 013°22'0 0.0
2015-Apr-20 11:33N 38°08' E 013°22'0 0.0
2015-Apr-20 10:33N 38°08' E 013°22'0 0.0
2015-Apr-20 09:33N 38°08' E 013°22'0 0.0
2015-Apr-20 08:33N 38°08' E 013°22'0 0.0
2015-Apr-20 07:30N 38°08' E 013°22'0 0.0
2015-Apr-20 06:33N 38°08' E 013°22'0 0.2
2015-Apr-20 05:34N 38°08' E 013°22'5 4.6
2015-Apr-20 04:33N 38°12' E 013°24'9 9.4
2015-Apr-20 03:33N 38°19' E 013°16'1212.4
2015-Apr-20 02:33N 38°20' E 012°60'1312.9
2015-Apr-20 01:31N 38°21' E 012°43'13114.3
2015-Apr-19 16:20N 38°33' E 009°56'2016.7
2015-Apr-19 15:08N 38°34' E 009°30'3117.0
2015-Apr-19 13:18N 38°37' E 008°51'1316.8
2015-Apr-19 12:33N 38°38' E 008°35'3516.4
2015-Apr-19 10:26N 38°50' E 007°53'15216.9
2015-Apr-19 01:29N 40°05' E 005°02'3416.9
2015-Apr-18 23:29N 40°22' E 004°23'2117.3
2015-Apr-18 22:15N 40°32' E 003°59'1516.4
2015-Apr-18 21:20N 40°39' E 003°42'1316.7
2015-Apr-18 20:33N 40°45' E 003°26'1716.6
2015-Apr-18 19:33N 40°53' E 003°07'1716.9
2015-Apr-18 18:33N 41°02' E 002°48'1716.8
2015-Apr-18 17:33N 41°09' E 002°28'1615.9
2015-Apr-18 16:33N 41°18' E 002°10'4 3.6
2015-Apr-18 15:33N 41°22' E 002°11'0 0.0
2015-Apr-18 14:33N 41°22' E 002°11'0 0.0
2015-Apr-18 13:33N 41°22' E 002°11'0 0.0
2015-Apr-18 12:33N 41°22' E 002°11'0 0.0
2015-Apr-18 11:33N 41°22' E 002°11'0 0.0
2015-Apr-18 10:33N 41°22' E 002°11'0 0.0
2015-Apr-18 09:33N 41°22' E 002°11'0 0.0
2015-Apr-18 08:33N 41°22' E 002°11'0 0.0
2015-Apr-18 07:33N 41°22' E 002°11'0 0.0
2015-Apr-18 06:33N 41°22' E 002°11'4 3.6
2015-Apr-18 05:26N 41°18' E 002°11'1213.5
2015-Apr-18 04:33N 41°20' E 002°26'1717.4
2015-Apr-18 03:33N 41°29' E 002°47'5517.5
2015-Apr-18 00:26N 41°54' E 003°52'3317.1
2015-Apr-17 22:32N 42°09' E 004°31'1817.2
2015-Apr-17 21:30N 42°17' E 004°52'1616.5
2015-Apr-17 20:34N 42°24' E 005°10'2117.9
2015-Apr-17 19:23N 42°34' E 005°36'1416.4
2015-Apr-17 18:33N 42°40' E 005°52'5917.3
2015-Apr-17 15:09N 43°16' E 006°56'1016.8
2015-Apr-17 14:34N 43°24' E 007°05'1515.1
2015-Apr-17 13:33N 43°36' E 007°16'6 4.8
2015-Apr-17 12:24N 43°42' E 007°19'0 0.0
2015-Apr-17 11:30N 43°42' E 007°19'0 0.0
2015-Apr-17 10:30N 43°42' E 007°19'0 0.0
2015-Apr-17 09:24N 43°42' E 007°19'0 0.0
2015-Apr-17 07:24N 43°42' E 007°19'0 0.0
2015-Apr-17 05:26N 43°42' E 007°19'0 0.0
2015-Apr-17 04:33N 43°42' E 007°19'5 5.0
2015-Apr-17 03:30N 43°40' E 007°25'1511.1
2015-Apr-17 02:10N 43°39' E 007°46'911.5
2015-Apr-17 01:22N 43°38' E 007°59'1113.3
2015-Apr-17 00:33N 43°37' E 008°13'1413.7
2015-Apr-16 23:33N 43°36' E 008°32'1413.7
2015-Apr-16 22:33N 43°35' E 008°51'1413.9
2015-Apr-16 21:34N 43°34' E 009°10'1413.7
2015-Apr-16 20:34N 43°33' E 009°29'1312.7
2015-Apr-16 19:33N 43°33' E 009°47'1110.6
2015-Apr-16 18:33N 43°31' E 010°01'1211.9
2015-Apr-16 17:33N 43°33' E 010°17'1 1.0
2015-Apr-16 16:33N 43°34' E 010°18'0 0.0
2015-Apr-16 15:33N 43°34' E 010°18'0 0.0
2015-Apr-16 14:33N 43°34' E 010°18'0 0.0
2015-Apr-16 13:33N 43°33' E 010°18'0 0.0
2015-Apr-16 12:33N 43°33' E 010°18'0 0.0
2015-Apr-16 11:33N 43°33' E 010°18'0 0.0
2015-Apr-16 10:33N 43°33' E 010°18'0 0.0
2015-Apr-16 09:30N 43°33' E 010°18'0 0.0
2015-Apr-16 08:33N 43°34' E 010°18'0 0.0
2015-Apr-16 07:30N 43°33' E 010°18'0 0.0
2015-Apr-16 06:33N 43°34' E 010°18'0 0.0
2015-Apr-16 05:33N 43°34' E 010°18'3 2.6
2015-Apr-16 04:33N 43°31' E 010°16'1211.9
2015-Apr-16 03:33N 43°20' E 010°10'1515.0
2015-Apr-16 02:33N 43°05' E 010°09'1414.2
2015-Apr-16 01:34N 42°52' E 010°00'1514.8
2015-Apr-16 00:33N 42°38' E 009°57'1614.7
2015-Apr-15 23:27N 42°22' E 009°57'1514.3
2015-Apr-15 22:23N 42°07' E 010°04'1916.4
2015-Apr-15 21:15N 42°06' E 010°29'1516.0
2015-Apr-15 20:20N 42°04' E 010°49'1416.4
2015-Apr-15 19:29N 42°02' E 011°07'76 4.0
2015-Apr-15 00:19N 41°15' E 012°27'2513.6
2015-Apr-14 22:29N 41°06' E 012°57'1414.8
2015-Apr-14 21:33N 40°60' E 013°14'1515.0
2015-Apr-14 20:33N 40°52' E 013°31'1515.4
2015-Apr-14 19:33N 40°40' E 013°44'1413.9
2015-Apr-14 18:33N 40°38' E 014°02'1413.7
2015-Apr-14 17:33N 40°48' E 014°15'3 0.2
2015-Apr-14 06:27N 40°50' E 014°16'6 6.3
2015-Apr-14 05:33N 40°45' E 014°15'1111.1
2015-Apr-14 04:33N 40°35' E 014°08'1211.8
2015-Apr-14 03:33N 40°24' E 014°03'1211.6
2015-Apr-14 02:33N 40°12' E 014°01'1211.6
2015-Apr-14 01:33N 40°01' E 013°58'1212.1
2015-Apr-14 00:34N 39°49' E 013°55'1411.8
2015-Apr-13 23:22N 39°35' E 013°51'911.3
2015-Apr-13 22:33N 39°26' E 013°47'1211.5
2015-Apr-13 21:32N 39°15' E 013°44'2311.8
2015-Apr-13 19:34N 38°52' E 013°38'1111.4
2015-Apr-13 18:33N 38°41' E 013°34'1717.1
2015-Apr-13 17:34N 38°24' E 013°30'1616.1
2015-Apr-13 16:33N 38°09' E 013°25'3 2.8
2015-Apr-13 15:32N 38°08' E 013°22'0 0.0
2015-Apr-13 14:32N 38°08' E 013°22'0 0.0
2015-Apr-13 13:32N 38°08' E 013°22'0 0.0
2015-Apr-13 12:32N 38°08' E 013°22'0 0.0
2015-Apr-13 11:32N 38°08' E 013°22'0 0.0
2015-Apr-13 10:29N 38°08' E 013°22'0 0.0
2015-Apr-13 09:32N 38°08' E 013°22'0 0.0
2015-Apr-13 08:32N 38°08' E 013°22'0 0.0
2015-Apr-13 07:32N 38°08' E 013°22'0 0.0
2015-Apr-13 06:32N 38°08' E 013°22'0 0.2
2015-Apr-13 05:33N 38°08' E 013°22'6 6.4
2015-Apr-13 04:33N 38°14' E 013°23'9 9.4
2015-Apr-13 03:33N 38°19' E 013°13'1212.1
2015-Apr-13 02:33N 38°20' E 012°58'1411.8
2015-Apr-13 01:20N 38°21' E 012°39'23015.5
2015-Apr-12 10:28N 38°56' E 007°48'3917.3
2015-Apr-12 08:12N 39°14' E 007°03'1316.6
2015-Apr-12 07:24N 39°21' E 006°48'2116.7
2015-Apr-12 06:09N 39°31' E 006°24'3016.7
2015-Apr-12 04:21N 39°45' E 005°50'1417.0
2015-Apr-12 03:30N 39°52' E 005°33'1516.4
2015-Apr-12 02:33N 39°60' E 005°16'2016.6
2015-Apr-12 01:22N 40°09' E 004°53'1416.8
2015-Apr-12 00:31N 40°16' E 004°37'1917.0
2015-Apr-11 23:24N 40°25' E 004°15'3316.7
2015-Apr-11 21:26N 40°41' E 003°37'1516.7
2015-Apr-11 20:33N 40°48' E 003°20'1716.6
2015-Apr-11 19:33N 40°56' E 003°01'1716.6
2015-Apr-11 18:33N 41°04' E 002°41'1616.4
2015-Apr-11 17:33N 41°11' E 002°22'1312.6
2015-Apr-11 16:32N 41°20' E 002°10'1 1.2
2015-Apr-11 15:26N 41°22' E 002°11'0 0.0
2015-Apr-11 14:32N 41°22' E 002°11'0 0.0
2015-Apr-11 13:33N 41°22' E 002°11'0 0.0
2015-Apr-11 11:33N 41°22' E 002°11'0 0.0
2015-Apr-11 10:29N 41°22' E 002°11'0 0.0
2015-Apr-11 09:19N 41°22' E 002°11'0 0.0
2015-Apr-11 07:07N 41°22' E 002°11'0 0.0
2015-Apr-11 06:33N 41°22' E 002°11'  

Dump ship's entire track history